createdAt,value
2022-07-30T06:59:12.502Z,10.53
2022-07-30T07:01:42.896Z,8.60
2022-07-30T07:04:11.279Z,8.60
2022-07-30T07:06:39.129Z,9.30
2022-07-30T07:09:07.173Z,8.10
2022-07-30T07:11:35.071Z,7.70
2022-07-30T07:14:04.905Z,8.87
2022-07-30T07:16:33.046Z,7.50
2022-07-30T07:18:59.900Z,7.97
2022-07-30T07:21:26.789Z,7.53
2022-07-30T07:23:53.556Z,7.80
2022-07-30T07:26:20.259Z,7.13
2022-07-30T07:28:47.059Z,8.80
2022-07-30T07:32:02.708Z,8.43
2022-07-30T07:34:06.916Z,6.90
2022-07-30T07:36:35.252Z,8.53
2022-07-30T07:39:02.014Z,7.53
2022-07-30T07:41:28.760Z,6.27
2022-07-30T07:43:55.490Z,6.53
2022-07-30T07:46:33.600Z,7.20
2022-07-30T07:49:01.550Z,6.70
2022-07-30T07:51:46.760Z,8.03
2022-07-30T07:54:23.448Z,7.30
2022-07-30T07:56:53.005Z,6.67
2022-07-30T07:59:20.134Z,7.47
2022-07-30T08:01:54.331Z,6.43
2022-07-30T08:04:21.169Z,6.70
2022-07-30T08:06:47.983Z,8.00
2022-07-30T08:09:14.701Z,6.43
2022-07-30T08:11:41.582Z,7.50
2022-07-30T08:14:08.411Z,6.40
2022-07-30T08:16:35.362Z,6.23
2022-07-30T08:19:02.163Z,6.67
2022-07-30T08:21:28.897Z,7.20
2022-07-30T08:23:55.573Z,7.60
2022-07-30T08:26:22.261Z,6.43
2022-07-30T08:28:48.908Z,6.77
2022-07-30T08:31:16.194Z,6.37
2022-07-30T08:33:42.842Z,6.70
2022-07-30T08:36:10.322Z,6.13
2022-07-30T08:38:38.332Z,6.13
2022-07-30T08:41:05.316Z,6.30
2022-07-30T08:43:32.811Z,6.83
2022-07-30T08:46:00.730Z,5.57
2022-07-30T08:48:28.432Z,5.30
2022-07-30T08:50:55.226Z,5.63
2022-07-30T08:53:23.499Z,5.30
2022-07-30T08:55:50.161Z,5.60
2022-07-30T08:58:28.560Z,4.63
2022-07-30T09:03:27.290Z,4.33
2022-07-30T09:05:53.987Z,5.67
2022-07-30T09:08:20.796Z,4.50
2022-07-30T09:10:52.902Z,4.00
2022-07-30T09:13:28.011Z,4.23
2022-07-30T09:15:55.821Z,4.20
2022-07-30T09:18:44.350Z,4.03
2022-07-30T09:21:29.979Z,4.00
2022-07-30T09:24:11.736Z,4.03
2022-07-30T09:26:55.810Z,4.57
2022-07-30T09:29:28.035Z,3.70
2022-07-30T09:31:57.706Z,4.03
2022-07-30T09:34:31.075Z,4.37
2022-07-30T09:36:59.833Z,3.30
2022-07-30T09:39:30.287Z,3.57
2022-07-30T09:41:58.254Z,3.53
2022-07-30T09:44:27.108Z,3.60
2022-07-30T09:46:54.074Z,3.90
2022-07-30T09:49:26.540Z,3.40
2022-07-30T09:52:00.230Z,2.80
2022-07-30T09:54:51.829Z,2.50
2022-07-30T09:57:26.387Z,2.87
2022-07-30T09:59:59.970Z,2.50
2022-07-30T10:02:33.604Z,2.23
2022-07-30T10:05:13.945Z,3.40
2022-07-30T10:07:55.088Z,2.80
2022-07-30T10:10:26.158Z,3.03
2022-07-30T10:12:58.947Z,3.00
2022-07-30T10:15:30.019Z,2.97
2022-07-30T10:18:00.437Z,4.20
2022-07-30T10:20:27.874Z,2.90
2022-07-30T10:22:54.922Z,2.77
2022-07-30T10:25:27.863Z,2.77
2022-07-30T10:27:57.758Z,3.07
2022-07-30T10:30:28.251Z,3.10
2022-07-30T10:32:58.483Z,3.03
2022-07-30T10:35:34.392Z,2.90
2022-07-30T10:38:09.554Z,2.60
2022-07-30T10:40:52.615Z,3.10
2022-07-30T10:43:58.206Z,3.33
2022-07-30T10:47:07.910Z,2.80
2022-07-30T10:49:41.122Z,3.40
2022-07-30T10:52:10.641Z,2.80
2022-07-30T10:54:39.316Z,2.83
2022-07-30T10:57:23.026Z,3.03
2022-07-30T11:00:04.241Z,2.60
2022-07-30T11:02:35.117Z,3.10
2022-07-30T11:05:17.800Z,3.53
2022-07-30T11:07:47.658Z,3.03
2022-07-30T11:10:44.061Z,2.93
2022-07-30T11:13:10.920Z,3.40
2022-07-30T11:15:57.931Z,3.37
2022-07-30T11:18:26.904Z,3.40
2022-07-30T11:21:21.528Z,3.60
2022-07-30T11:23:54.668Z,3.30
2022-07-30T11:26:41.642Z,3.03
2022-07-30T11:29:32.879Z,2.90
2022-07-30T11:32:29.666Z,3.30
2022-07-30T11:35:13.175Z,3.10
2022-07-30T11:38:00.936Z,3.60
2022-07-30T11:40:49.998Z,2.73
2022-07-30T11:43:35.098Z,2.70
2022-07-30T11:46:10.766Z,2.57
2022-07-30T11:48:40.717Z,2.80
2022-07-30T11:51:08.763Z,2.60
2022-07-30T11:53:36.015Z,2.83
2022-07-30T11:56:03.804Z,2.50
2022-07-30T11:58:32.063Z,2.83
2022-07-30T12:01:12.205Z,2.57
2022-07-30T12:03:44.110Z,3.20
2022-07-30T12:06:17.894Z,2.70
2022-07-30T12:08:46.918Z,2.77
2022-07-30T12:11:14.134Z,3.30
2022-07-30T12:13:45.971Z,2.63
2022-07-30T12:16:16.200Z,2.40
2022-07-30T12:18:44.076Z,2.70
2022-07-30T12:21:17.217Z,2.80
2022-07-30T12:24:00.661Z,2.83
2022-07-30T12:26:29.553Z,2.50
2022-07-30T12:28:58.089Z,2.37
2022-07-30T12:31:25.383Z,2.47
2022-07-30T12:33:52.060Z,2.10
2022-07-30T12:36:33.589Z,2.50
2022-07-30T12:39:01.951Z,2.33
2022-07-30T12:42:01.076Z,2.57
2022-07-30T12:44:42.261Z,2.90
2022-07-30T12:47:23.691Z,2.53
2022-07-30T12:49:51.566Z,2.90
2022-07-30T12:52:30.853Z,2.50
2022-07-30T12:55:03.643Z,2.50
2022-07-30T12:57:52.299Z,2.67
2022-07-30T13:00:19.160Z,2.40
2022-07-30T13:02:45.927Z,2.80
2022-07-30T13:05:12.632Z,2.77
2022-07-30T13:07:59.663Z,2.60
2022-07-30T13:10:30.879Z,2.87
2022-07-30T13:12:58.359Z,2.23
2022-07-30T13:15:25.188Z,2.90
2022-07-30T13:17:51.910Z,2.80
2022-07-30T13:20:19.091Z,2.50
2022-07-30T13:22:45.948Z,1.90
2022-07-30T13:25:13.052Z,2.63
2022-07-30T13:27:40.285Z,2.70
2022-07-30T13:30:07.915Z,2.67
2022-07-30T13:32:35.615Z,2.63
2022-07-30T13:35:02.975Z,2.60
2022-07-30T13:37:36.164Z,2.80
2022-07-30T13:40:06.480Z,2.40
2022-07-30T13:42:33.515Z,2.53
2022-07-30T13:45:00.206Z,2.77
2022-07-30T13:47:26.886Z,2.53
2022-07-30T13:49:53.977Z,2.70
2022-07-30T13:52:20.685Z,2.37
2022-07-30T13:54:48.151Z,2.40
2022-07-30T13:57:14.836Z,2.60
2022-07-30T13:59:41.510Z,2.70
2022-07-30T14:02:08.619Z,2.90
2022-07-30T14:04:35.299Z,3.03
2022-07-30T14:07:02.625Z,2.50
2022-07-30T14:09:29.536Z,2.60
2022-07-30T14:11:56.264Z,2.10
2022-07-30T14:14:22.976Z,2.70
2022-07-30T14:16:53.665Z,2.47
2022-07-30T14:19:23.971Z,2.63
2022-07-30T14:21:53.016Z,2.27
2022-07-30T14:24:20.804Z,2.23
2022-07-30T14:26:47.873Z,2.33
2022-07-30T14:29:14.881Z,2.40
2022-07-30T14:31:41.610Z,2.13
2022-07-30T14:34:08.842Z,2.27
2022-07-30T14:36:37.228Z,2.77
2022-07-30T14:39:04.808Z,2.60
2022-07-30T14:41:32.073Z,22.93
2022-07-30T14:43:58.803Z,3.90
2022-07-30T14:46:25.466Z,2.27
2022-07-30T14:48:52.216Z,2.17
2022-07-30T14:51:25.590Z,2.07
2022-07-30T14:53:53.081Z,2.57
2022-07-30T14:56:19.819Z,2.17
2022-07-30T14:58:46.539Z,1.73
2022-07-30T15:01:15.705Z,1.70
2022-07-30T15:03:44.348Z,2.00
2022-07-30T15:06:12.632Z,3.27
2022-07-30T15:08:39.661Z,3.50
2022-07-30T15:11:08.113Z,2.57
2022-07-30T15:13:37.099Z,1.80
2022-07-30T15:16:16.426Z,1.90
2022-07-30T15:18:43.119Z,1.90
2022-07-30T15:21:09.807Z,2.10
2022-07-30T15:23:36.471Z,2.73
2022-07-30T15:26:03.125Z,4.87
2022-07-30T15:28:29.800Z,3.00
2022-07-30T15:30:58.050Z,2.40
2022-07-30T15:33:24.738Z,2.17
2022-07-30T15:35:51.578Z,2.10
2022-07-30T15:38:18.365Z,10.80
2022-07-30T15:40:45.113Z,7.90
2022-07-30T15:43:11.798Z,2.30
2022-07-30T15:46:05.757Z,1.17
2022-07-30T15:48:32.492Z,1.63
2022-07-30T15:51:03.880Z,1.30
2022-07-30T15:53:31.474Z,1.80
2022-07-30T15:55:59.167Z,1.77
2022-07-30T15:58:25.851Z,1.40
2022-07-30T16:00:52.637Z,1.27
2022-07-30T16:03:19.354Z,1.77
2022-07-30T16:05:51.382Z,1.43
2022-07-30T16:08:22.283Z,1.70
2022-07-30T16:10:49.747Z,1.60
2022-07-30T16:13:16.459Z,1.43
2022-07-30T16:15:43.239Z,1.43
2022-07-30T16:18:10.356Z,2.00
2022-07-30T16:20:37.037Z,1.50
2022-07-30T16:23:03.794Z,1.63
2022-07-30T16:25:30.499Z,1.40
2022-07-30T16:27:57.748Z,1.70
2022-07-30T16:30:27.487Z,1.20
2022-07-30T16:32:56.172Z,2.27
2022-07-30T16:35:23.188Z,1.43
2022-07-30T16:37:49.846Z,1.60
2022-07-30T16:40:16.599Z,2.90
2022-07-30T16:42:43.289Z,3.17
2022-07-30T16:45:10.325Z,2.90
2022-07-30T16:47:37.085Z,1.90
2022-07-30T16:50:04.670Z,9.00
2022-07-30T16:52:31.312Z,5.20
2022-07-30T16:54:58.041Z,1.70
2022-07-30T16:57:24.699Z,1.80
2022-07-30T16:59:51.422Z,1.33
2022-07-30T17:02:18.196Z,1.60
2022-07-30T17:04:44.853Z,1.67
2022-07-30T17:07:11.631Z,1.70
2022-07-30T17:09:38.326Z,1.20
2022-07-30T17:12:12.186Z,1.97
2022-07-30T17:14:42.723Z,1.37
2022-07-30T17:17:14.248Z,1.50
2022-07-30T17:19:41.915Z,1.37
2022-07-30T17:22:08.740Z,1.30
2022-07-30T17:24:35.397Z,1.30
2022-07-30T17:27:02.177Z,1.40
2022-07-30T17:29:29.707Z,1.40
2022-07-30T17:31:56.372Z,1.40
2022-07-30T17:34:23.017Z,1.20
2022-07-30T17:36:52.629Z,1.67
2022-07-30T17:40:29.494Z,1.23
2022-07-30T17:42:10.983Z,2.80
2022-07-30T17:44:39.394Z,1.97
2022-07-30T17:47:07.996Z,1.70
2022-07-30T17:49:39.164Z,2.43
2022-07-30T17:52:06.247Z,2.00
2022-07-30T17:54:32.928Z,1.80
2022-07-30T17:56:59.648Z,1.80
2022-07-30T17:59:26.367Z,1.90
2022-07-30T18:01:53.035Z,2.37
2022-07-30T18:04:19.678Z,2.17
2022-07-30T18:06:46.346Z,2.40
2022-07-30T18:09:13.016Z,2.40
2022-07-30T18:11:39.711Z,1.90
2022-07-30T18:14:06.734Z,2.40
2022-07-30T18:16:33.466Z,2.60
2022-07-30T18:19:00.123Z,2.87
2022-07-30T18:21:27.215Z,2.40
2022-07-30T18:23:53.917Z,2.10
2022-07-30T18:26:22.386Z,2.00
2022-07-30T18:28:50.743Z,2.43
2022-07-30T18:31:17.712Z,2.67
2022-07-30T18:33:45.072Z,2.33
2022-07-30T18:36:11.858Z,3.10
2022-07-30T18:38:38.680Z,2.40
2022-07-30T18:41:05.605Z,2.63
2022-07-30T18:43:32.590Z,3.17
2022-07-30T18:46:14.774Z,2.90
2022-07-30T18:48:41.476Z,3.17
2022-07-30T18:51:13.381Z,2.93
2022-07-30T18:53:41.478Z,3.13
2022-07-30T18:56:08.301Z,3.23
2022-07-30T18:58:35.017Z,3.20
2022-07-30T19:01:01.750Z,2.63
2022-07-30T19:03:28.471Z,2.67
2022-07-30T19:05:55.145Z,2.70
2022-07-30T19:08:21.849Z,2.73
2022-07-30T19:10:48.665Z,2.93
2022-07-30T19:13:15.358Z,2.50
2022-07-30T19:15:42.014Z,2.50
2022-07-30T19:18:10.246Z,2.57
2022-07-30T19:20:37.038Z,2.87
2022-07-30T19:23:05.796Z,2.83
2022-07-30T19:25:33.650Z,3.10
2022-07-30T19:28:01.777Z,3.23
2022-07-30T19:30:29.991Z,2.83
2022-07-30T19:33:14.658Z,2.97
2022-07-30T19:35:42.909Z,3.00
2022-07-30T19:38:11.809Z,2.70
2022-07-30T19:40:42.253Z,3.00
2022-07-30T19:43:10.274Z,3.27
2022-07-30T19:45:46.756Z,2.80
2022-07-30T19:48:14.859Z,3.20
2022-07-30T19:50:55.877Z,2.63
2022-07-30T19:53:22.565Z,2.73
2022-07-30T19:55:50.812Z,3.07
2022-07-30T19:58:17.828Z,3.03
2022-07-30T20:00:49.421Z,2.67
2022-07-30T20:06:08.327Z,2.80
2022-07-30T20:08:41.838Z,2.97
2022-07-30T20:11:12.077Z,2.43
2022-07-30T20:13:47.857Z,2.90
2022-07-30T20:16:15.521Z,3.00
2022-07-30T20:18:44.281Z,2.67
2022-07-30T20:21:14.878Z,3.07
2022-07-30T20:23:43.106Z,2.80
2022-07-30T20:26:13.594Z,2.90
2022-07-30T20:28:41.847Z,2.80
2022-07-30T20:31:08.650Z,2.83
2022-07-30T20:33:35.993Z,3.00
2022-07-30T20:36:04.791Z,3.20
2022-07-30T20:38:33.669Z,2.30
2022-07-30T20:41:02.479Z,2.60
2022-07-30T20:43:29.319Z,2.50
2022-07-30T20:45:56.157Z,2.60
2022-07-30T20:48:25.801Z,2.77
2022-07-30T20:50:52.688Z,2.73
2022-07-30T20:53:19.881Z,2.57
2022-07-30T20:55:47.546Z,2.80
2022-07-30T20:58:16.767Z,2.83
2022-07-30T21:00:49.605Z,2.60
2022-07-30T21:03:21.747Z,2.97
2022-07-30T21:05:49.147Z,2.83
2022-07-30T21:08:19.541Z,2.63
2022-07-30T21:10:46.735Z,2.10
2022-07-30T21:13:13.760Z,2.80
2022-07-30T21:15:45.620Z,2.53
2022-07-30T21:18:27.385Z,2.80
2022-07-30T21:20:54.051Z,2.60
2022-07-30T21:23:23.943Z,2.70
2022-07-30T21:26:01.389Z,2.70
2022-07-30T21:28:35.508Z,2.87
2022-07-30T21:31:06.935Z,2.87
2022-07-30T21:33:34.996Z,2.83
2022-07-30T21:36:01.721Z,2.97
2022-07-30T21:38:28.714Z,3.53
2022-07-30T21:40:57.905Z,2.50
2022-07-30T21:43:29.367Z,3.30
2022-07-30T21:45:57.863Z,3.10
2022-07-30T21:48:27.948Z,3.33
2022-07-30T21:50:55.710Z,3.30
2022-07-30T21:53:29.892Z,2.50
2022-07-30T21:56:10.606Z,2.83
2022-07-30T21:58:38.797Z,2.83
2022-07-30T22:01:16.752Z,3.90
2022-07-30T22:04:04.012Z,3.07
2022-07-30T22:06:41.888Z,2.70
2022-07-30T22:09:19.014Z,2.40
2022-07-30T22:12:01.127Z,3.20
2022-07-30T22:14:29.036Z,2.97
2022-07-30T22:16:56.277Z,2.90
2022-07-30T22:19:23.509Z,2.63
2022-07-30T22:21:52.691Z,2.87
2022-07-30T22:24:26.285Z,3.63
2022-07-30T22:26:57.301Z,2.67
2022-07-30T22:29:26.876Z,2.80
2022-07-30T22:32:00.887Z,2.57
2022-07-30T22:34:27.841Z,2.87
2022-07-30T22:36:54.517Z,2.73
2022-07-30T22:39:24.515Z,2.93
2022-07-30T22:42:00.912Z,2.97
2022-07-30T22:44:28.477Z,2.90
2022-07-30T22:49:49.821Z,2.93
2022-07-30T22:52:25.695Z,3.00
2022-07-30T22:54:54.297Z,3.33
2022-07-30T22:57:23.013Z,3.47
2022-07-30T22:59:58.362Z,3.27
2022-07-30T23:02:25.660Z,2.90
2022-07-30T23:04:54.724Z,2.83
2022-07-30T23:07:23.371Z,3.30
2022-07-30T23:09:51.892Z,3.23
2022-07-30T23:12:15.733Z,3.17
2022-07-30T23:12:20.116Z,2.77
2022-07-30T23:12:34.003Z,3.47
2022-07-30T23:14:47.684Z,2.80
2022-07-30T23:17:14.678Z,2.77
2022-07-30T23:19:41.380Z,2.47
2022-07-30T23:22:08.046Z,2.87
2022-07-30T23:24:34.760Z,2.70
2022-07-30T23:27:02.270Z,2.70
2022-07-30T23:29:29.191Z,2.60
2022-07-30T23:31:56.197Z,2.70
2022-07-30T23:34:23.367Z,2.90
2022-07-30T23:36:50.100Z,2.63
2022-07-30T23:39:16.795Z,3.13
2022-07-30T23:41:43.668Z,2.50
2022-07-30T23:44:10.365Z,2.83
2022-07-30T23:46:37.208Z,3.00
2022-07-30T23:49:04.905Z,3.23
2022-07-30T23:51:33.121Z,2.60
2022-07-30T23:54:00.431Z,3.33
2022-07-30T23:56:27.224Z,2.90
2022-07-30T23:58:54.584Z,2.97
